Pilot Rock, Oregon
Current Conditions -  °F | °C
As of 5:53 AM on Wednesday 28 Jan 2015 (Local Time) from KPDT Reporting Station
Overcast Overcast  
Wind Chill: 37°   Ceiling: 5000
Heat Index: 41°   Visibility: 10mi
Dew Point: 37°   Wind: 6mph
Humidity: 86%   Direction: 140°SE
Pressure: 30.3"   Gusts: NA
Location:  45.48°N, 118.83°W
Report Text: KPDT 281353Z AUTO 14005KT 10SM OVC050 05/03 A3030 RMK AO2 SLP263 T00500028
Loading
Personal Weather Stations






























Interactive Weather Map New forecast layout! Learn more

10-Day Weather Forecast

Advertisements
Track Severe Weather on mobile